Airfield :
LOGIN :

Register | Disclaimer

   EN    FR    IT 

 










Legend :    VFR   Marginal VFR   IFR   Intensive IFR   Very Intensive IFR
Visi :
Ceiling :
>= 8 km
>= 3000ft
5 to 8 km
1000 to 3000 ft
1500m to 5 km
500 to 1000 ft
800 to 1500m
200 to 500 ft
< 800m
< 200 ft
Symbols :   Thunderstorms  Fog  Heavy snow  Heavy precipitations  Wind > 20 kt
SIGMETs :     Misc.  Thunderstorms  Icing  Turbulence  Mountain Waves  Volcanic Ashes






- Airport Elevation : 156 ft
- IATA code : LCC


LIBN - Lecce Galatine (military)

CURRENT METAR :
  • 240455Z 15002KT 9999 FEW050 08/07 Q1009 RMK FEW VIS MIN 9999 WIND THR14 16003KT WIND THR32 13002KT BLU

EXPIRED METARs :
  • 240355Z 12003KT 9999 BKN050 08/08 Q1009 RMK BKN VIS MIN 9999 WIND THR14 18003KT WIND THR32 15003KT BLU
  • 240255Z 10002KT 9999 SCT040 10/09 Q1009
  • 240155Z 21002KT 9999 SCT040 10/09 Q1009 RMK SCT VIS MIN 9999 WIND THR14 36001KT WIND THR32 23003KT BLU
  • 240055Z 29002KT 9999 BKN040 10/09 Q1009 RMK BKN VIS MIN 9999 WIND THR14 28001KT WIND THR32 29002KT BLU
  • 232355Z 31008KT 9999 SCT040 11/10 Q1009 RMK SCT VIS MIN 9999 WIND THR14 31007KT WIND THR32 31008KT BLU

Expired Forecast.



MET'MAP, your aeronautical weather chart ! - Copyright ORBIFLY December 2007 - Disclaimer

ORBIFLY MET'MAP TEAM :

Programming & Development : Alexandra Zaïnal
Original concept : Baudouin d'Aumeries
Technical & hardware support : Manuel Goepfert
Assistance : Marc-Olivier Méhu




SOURCES & CREDITS :

   NOAA